sensor_id;sensor_type;location;lat;lon;timestamp;pressure;altitude;pressure_sealevel;temperature;humidity
54540;BME280;40438;52.992;18.604;2022-10-16T00:01:06;100798.41;;;13.60;100.00
54540;BME280;40438;52.992;18.604;2022-10-16T00:03:32;100801.56;;;13.57;100.00
54540;BME280;40438;52.992;18.604;2022-10-16T00:05:59;100797.03;;;13.58;100.00
54540;BME280;40438;52.992;18.604;2022-10-16T00:08:27;100799.81;;;13.51;100.00
54540;BME280;40438;52.992;18.604;2022-10-16T00:10:58;100796.75;;;13.47;100.00
54540;BME280;40438;52.992;18.604;2022-10-16T00:13:24;100808.81;;;13.45;100.00
54540;BME280;40438;52.992;18.604;2022-10-16T00:15:50;100811.13;;;13.41;100.00
54540;BME280;40438;52.992;18.604;2022-10-16T00:18:15;100812.09;;;13.47;100.00
54540;BME280;40438;52.992;18.604;2022-10-16T00:20:41;100813.34;;;13.44;100.00
54540;BME280;40438;52.992;18.604;2022-10-16T00:23:07;100825.88;;;13.39;100.00
54540;BME280;40438;52.992;18.604;2022-10-16T00:25:34;100830.16;;;13.28;100.00
54540;BME280;40438;52.992;18.604;2022-10-16T00:28:00;100823.97;;;13.28;100.00
54540;BME280;40438;52.992;18.604;2022-10-16T00:30:25;100836.22;;;13.23;100.00
54540;BME280;40438;52.992;18.604;2022-10-16T00:32:51;100831.16;;;13.15;100.00
54540;BME280;40438;52.992;18.604;2022-10-16T00:35:17;100818.41;;;13.11;100.00
54540;BME280;40438;52.992;18.604;2022-10-16T00:37:43;100826.47;;;13.11;100.00
54540;BME280;40438;52.992;18.604;2022-10-16T00:40:09;100819.53;;;13.03;100.00
54540;BME280;40438;52.992;18.604;2022-10-16T00:42:37;100821.41;;;13.02;100.00
54540;BME280;40438;52.992;18.604;2022-10-16T00:45:03;100818.19;;;12.94;100.00
54540;BME280;40438;52.992;18.604;2022-10-16T00:47:31;100827.41;;;12.86;100.00
54540;BME280;40438;52.992;18.604;2022-10-16T00:50:02;100837.56;;;12.84;100.00
54540;BME280;40438;52.992;18.604;2022-10-16T00:52:28;100844.91;;;12.77;100.00
54540;BME280;40438;52.992;18.604;2022-10-16T00:54:54;100839.41;;;12.72;100.00
54540;BME280;40438;52.992;18.604;2022-10-16T00:57:21;100842.91;;;12.72;100.00
54540;BME280;40438;52.992;18.604;2022-10-16T00:59:49;100832.69;;;12.63;100.00
54540;BME280;40438;52.992;18.604;2022-10-16T01:02:16;100828.22;;;12.57;100.00
54540;BME280;40438;52.992;18.604;2022-10-16T01:04:44;100832.59;;;12.51;100.00
54540;BME280;40438;52.992;18.604;2022-10-16T01:07:13;100837.53;;;12.54;100.00
54540;BME280;40438;52.992;18.604;2022-10-16T01:09:50;100827.91;;;12.46;100.00
54540;BME280;40438;52.992;18.604;2022-10-16T01:12:22;100831.25;;;12.42;100.00
54540;BME280;40438;52.992;18.604;2022-10-16T01:14:57;100831.88;;;12.44;100.00
54540;BME280;40438;52.992;18.604;2022-10-16T01:17:28;100832.91;;;12.43;100.00
54540;BME280;40438;52.992;18.604;2022-10-16T01:20:05;100837.97;;;12.32;100.00
54540;BME280;40438;52.992;18.604;2022-10-16T01:22:42;100830.16;;;12.31;100.00
54540;BME280;40438;52.992;18.604;2022-10-16T01:25:12;100842.16;;;12.28;100.00
54540;BME280;40438;52.992;18.604;2022-10-16T01:27:43;100847.16;;;12.25;100.00
54540;BME280;40438;52.992;18.604;2022-10-16T01:30:14;100843.03;;;12.22;100.00
54540;BME280;40438;52.992;18.604;2022-10-16T01:32:46;100830.22;;;12.24;100.00
54540;BME280;40438;52.992;18.604;2022-10-16T01:35:18;100842.22;;;12.22;100.00
54540;BME280;40438;52.992;18.604;2022-10-16T01:37:51;100850.88;;;12.24;100.00
54540;BME280;40438;52.992;18.604;2022-10-16T01:40:20;100856.69;;;12.21;100.00
54540;BME280;40438;52.992;18.604;2022-10-16T01:42:54;100848.84;;;12.19;100.00
54540;BME280;40438;52.992;18.604;2022-10-16T01:45:21;100857.97;;;12.18;100.00
54540;BME280;40438;52.992;18.604;2022-10-16T01:47:48;100849.69;;;12.20;100.00
54540;BME280;40438;52.992;18.604;2022-10-16T01:50:16;100852.16;;;12.21;100.00
54540;BME280;40438;52.992;18.604;2022-10-16T01:52:46;100861.22;;;12.20;100.00
54540;BME280;40438;52.992;18.604;2022-10-16T01:56:14;64184.78;;;-144.88;100.00
54540;BME280;40438;52.992;18.604;2022-10-16T01:58:47;100865.50;;;12.28;100.00
54540;BME280;40438;52.992;18.604;2022-10-16T02:01:16;100868.28;;;12.21;100.00
54540;BME280;40438;52.992;18.604;2022-10-16T02:03:46;100864.75;;;12.21;100.00
54540;BME280;40438;52.992;18.604;2022-10-16T02:06:14;100869.66;;;12.24;100.00
54540;BME280;40438;52.992;18.604;2022-10-16T02:08:40;100855.22;;;12.25;100.00
54540;BME280;40438;52.992;18.604;2022-10-16T02:11:06;100858.47;;;12.27;100.00
54540;BME280;40438;52.992;18.604;2022-10-16T02:13:37;100853.56;;;12.24;100.00
54540;BME280;40438;52.992;18.604;2022-10-16T02:16:06;100855.59;;;12.28;100.00
54540;BME280;40438;52.992;18.604;2022-10-16T02:18:32;100855.78;;;12.27;100.00
54540;BME280;40438;52.992;18.604;2022-10-16T02:21:00;100851.28;;;12.27;100.00
54540;BME280;40438;52.992;18.604;2022-10-16T02:23:33;100838.03;;;12.26;100.00
54540;BME280;40438;52.992;18.604;2022-10-16T02:26:03;100847.38;;;12.23;100.00
54540;BME280;40438;52.992;18.604;2022-10-16T02:28:34;100848.59;;;12.27;100.00
54540;BME280;40438;52.992;18.604;2022-10-16T02:31:07;100853.34;;;12.25;100.00
54540;BME280;40438;52.992;18.604;2022-10-16T02:33:34;100850.88;;;12.24;100.00
54540;BME280;40438;52.992;18.604;2022-10-16T02:36:01;100855.78;;;12.27;100.00
54540;BME280;40438;52.992;18.604;2022-10-16T02:38:27;100858.72;;;12.25;100.00
54540;BME280;40438;52.992;18.604;2022-10-16T02:40:54;100853.78;;;12.22;100.00
54540;BME280;40438;52.992;18.604;2022-10-16T02:43:20;100859.97;;;12.23;100.00
54540;BME280;40438;52.992;18.604;2022-10-16T02:45:46;100852.97;;;12.22;100.00
54540;BME280;40438;52.992;18.604;2022-10-16T02:48:13;100856.03;;;12.25;100.00
54540;BME280;40438;52.992;18.604;2022-10-16T02:50:39;100851.72;;;12.24;100.00
54540;BME280;40438;52.992;18.604;2022-10-16T02:53:05;100846.09;;;12.26;100.00
54540;BME280;40438;52.992;18.604;2022-10-16T02:55:31;100856.47;;;12.22;100.00
54540;BME280;40438;52.992;18.604;2022-10-16T02:57:56;100851.91;;;12.23;100.00
54540;BME280;40438;52.992;18.604;2022-10-16T03:00:22;100849.84;;;12.25;100.00
54540;BME280;40438;52.992;18.604;2022-10-16T03:02:48;100857.91;;;12.25;100.00
54540;BME280;40438;52.992;18.604;2022-10-16T03:05:15;100857.09;;;12.24;100.00
54540;BME280;40438;52.992;18.604;2022-10-16T03:07:41;100846.78;;;12.21;100.00
54540;BME280;40438;52.992;18.604;2022-10-16T03:10:08;100845.94;;;12.21;100.00
54540;BME280;40438;52.992;18.604;2022-10-16T03:12:34;100844.31;;;12.20;100.00
54540;BME280;40438;52.992;18.604;2022-10-16T03:14:59;100838.72;;;12.21;100.00
54540;BME280;40438;52.992;18.604;2022-10-16T03:17:25;100836.03;;;12.21;100.00
54540;BME280;40438;52.992;18.604;2022-10-16T03:19:51;100841.41;;;12.21;100.00
54540;BME280;40438;52.992;18.604;2022-10-16T03:22:18;100844.41;;;12.31;100.00
54540;BME280;40438;52.992;18.604;2022-10-16T03:24:44;100846.09;;;12.26;100.00
54540;BME280;40438;52.992;18.604;2022-10-16T03:27:10;100853.66;;;12.36;100.00
54540;BME280;40438;52.992;18.604;2022-10-16T03:29:35;100854.09;;;12.32;100.00
54540;BME280;40438;52.992;18.604;2022-10-16T03:32:02;100853.03;;;12.34;100.00
54540;BME280;40438;52.992;18.604;2022-10-16T03:34:28;100855.50;;;12.35;100.00
54540;BME280;40438;52.992;18.604;2022-10-16T03:36:54;100857.16;;;12.36;100.00
54540;BME280;40438;52.992;18.604;2022-10-16T03:39:21;100861.09;;;12.34;100.00
54540;BME280;40438;52.992;18.604;2022-10-16T03:41:47;100858.13;;;12.42;100.00
54540;BME280;40438;52.992;18.604;2022-10-16T03:44:12;100868.88;;;12.42;100.00
54540;BME280;40438;52.992;18.604;2022-10-16T03:46:38;100864.69;;;12.46;100.00
54540;BME280;40438;52.992;18.604;2022-10-16T03:49:04;100861.56;;;12.49;100.00
54540;BME280;40438;52.992;18.604;2022-10-16T03:51:30;100864.94;;;12.44;100.00
54540;BME280;40438;52.992;18.604;2022-10-16T03:53:56;100866.56;;;12.45;100.00
54540;BME280;40438;52.992;18.604;2022-10-16T03:56:23;100873.13;;;12.49;100.00
54540;BME280;40438;52.992;18.604;2022-10-16T03:58:48;100861.28;;;12.57;100.00
54540;BME280;40438;52.992;18.604;2022-10-16T04:01:14;100868.16;;;12.53;100.00
54540;BME280;40438;52.992;18.604;2022-10-16T04:03:40;100856.34;;;12.54;100.00
54540;BME280;40438;52.992;18.604;2022-10-16T04:06:06;100863.72;;;12.59;100.00
54540;BME280;40438;52.992;18.604;2022-10-16T04:08:31;100858.41;;;12.52;100.00
54540;BME280;40438;52.992;18.604;2022-10-16T04:10:57;100881.59;;;12.53;100.00
54540;BME280;40438;52.992;18.604;2022-10-16T04:13:24;100874.47;;;12.59;100.00
54540;BME280;40438;52.992;18.604;2022-10-16T04:15:50;100882.75;;;12.57;100.00
54540;BME280;40438;52.992;18.604;2022-10-16T04:18:16;100888.13;;;12.57;100.00
54540;BME280;40438;52.992;18.604;2022-10-16T04:20:41;100890.22;;;12.55;100.00
54540;BME280;40438;52.992;18.604;2022-10-16T04:23:07;100890.16;;;12.62;100.00
54540;BME280;40438;52.992;18.604;2022-10-16T04:25:33;100886.06;;;12.59;100.00
54540;BME280;40438;52.992;18.604;2022-10-16T04:27:59;100889.13;;;12.63;100.00
54540;BME280;40438;52.992;18.604;2022-10-16T04:30:26;100887.25;;;12.63;100.00
54540;BME280;40438;52.992;18.604;2022-10-16T04:32:52;100883.06;;;12.67;100.00
54540;BME280;40438;52.992;18.604;2022-10-16T04:35:18;100878.75;;;12.66;100.00
54540;BME280;40438;52.992;18.604;2022-10-16T04:37:44;100880.75;;;12.71;100.00
54540;BME280;40438;52.992;18.604;2022-10-16T04:40:10;100885.09;;;12.72;100.00
54540;BME280;40438;52.992;18.604;2022-10-16T04:42:36;100885.91;;;12.72;100.00
54540;BME280;40438;52.992;18.604;2022-10-16T04:45:02;100887.53;;;12.73;100.00
54540;BME280;40438;52.992;18.604;2022-10-16T04:47:29;100875.97;;;12.73;100.00
54540;BME280;40438;52.992;18.604;2022-10-16T04:49:55;100888.97;;;12.76;100.00
54540;BME280;40438;52.992;18.604;2022-10-16T04:52:20;100891.28;;;12.72;100.00
54540;BME280;40438;52.992;18.604;2022-10-16T04:54:46;100892.91;;;12.73;100.00
54540;BME280;40438;52.992;18.604;2022-10-16T04:57:12;100894.34;;;12.76;100.00
54540;BME280;40438;52.992;18.604;2022-10-16T04:59:37;100900.28;;;12.78;100.00
54540;BME280;40438;52.992;18.604;2022-10-16T05:02:03;100912.25;;;12.82;100.00
54540;BME280;40438;52.992;18.604;2022-10-16T05:04:30;100906.63;;;12.84;100.00
54540;BME280;40438;52.992;18.604;2022-10-16T05:06:56;100912.03;;;12.84;100.00
54540;BME280;40438;52.992;18.604;2022-10-16T05:09:22;100909.69;;;12.87;100.00
54540;BME280;40438;52.992;18.604;2022-10-16T05:11:47;100909.03;;;12.92;100.00
54540;BME280;40438;52.992;18.604;2022-10-16T05:14:13;100912.19;;;12.89;100.00
54540;BME280;40438;52.992;18.604;2022-10-16T05:16:39;100920.84;;;12.91;100.00
54540;BME280;40438;52.992;18.604;2022-10-16T05:19:05;100914.19;;;12.93;100.00
54540;BME280;40438;52.992;18.604;2022-10-16T05:21:32;100920.00;;;12.90;100.00
54540;BME280;40438;52.992;18.604;2022-10-16T05:23:57;100925.09;;;12.98;100.00
54540;BME280;40438;52.992;18.604;2022-10-16T05:26:23;100925.81;;;13.06;100.00
54540;BME280;40438;52.992;18.604;2022-10-16T05:28:49;100924.84;;;13.00;100.00
54540;BME280;40438;52.992;18.604;2022-10-16T05:31:15;100929.19;;;13.01;100.00
54540;BME280;40438;52.992;18.604;2022-10-16T05:33:41;100937.03;;;13.02;100.00
54540;BME280;40438;52.992;18.604;2022-10-16T05:36:09;100938.28;;;13.00;100.00
54540;BME280;40438;52.992;18.604;2022-10-16T05:38:36;100943.66;;;13.00;100.00
54540;BME280;40438;52.992;18.604;2022-10-16T05:41:03;100952.78;;;12.99;100.00
54540;BME280;40438;52.992;18.604;2022-10-16T05:43:29;100958.78;;;13.01;100.00
54540;BME280;40438;52.992;18.604;2022-10-16T05:45:56;100950.47;;;13.02;100.00
54540;BME280;40438;52.992;18.604;2022-10-16T05:48:23;100956.66;;;13.03;100.00
54540;BME280;40438;52.992;18.604;2022-10-16T05:50:48;100940.94;;;13.07;100.00
54540;BME280;40438;52.992;18.604;2022-10-16T05:53:21;100946.31;;;13.07;100.00
54540;BME280;40438;52.992;18.604;2022-10-16T05:55:52;100948.75;;;13.08;100.00
54540;BME280;40438;52.992;18.604;2022-10-16T05:58:18;100951.44;;;13.08;100.00
54540;BME280;40438;52.992;18.604;2022-10-16T06:00:44;100958.09;;;13.06;100.00
54540;BME280;40438;52.992;18.604;2022-10-16T06:03:10;100970.34;;;13.01;100.00
54540;BME280;40438;52.992;18.604;2022-10-16T06:05:35;100969.75;;;12.99;100.00
54540;BME280;40438;52.992;18.604;2022-10-16T06:08:01;100973.69;;;12.97;100.00
54540;BME280;40438;52.992;18.604;2022-10-16T06:10:27;100979.22;;;13.02;100.00
54540;BME280;40438;52.992;18.604;2022-10-16T06:12:54;100970.81;;;12.98;100.00
54540;BME280;40438;52.992;18.604;2022-10-16T06:15:20;100962.94;;;12.97;100.00
54540;BME280;40438;52.992;18.604;2022-10-16T06:17:46;100956.09;;;13.01;100.00
54540;BME280;40438;52.992;18.604;2022-10-16T06:20:12;100961.47;;;13.01;100.00
54540;BME280;40438;52.992;18.604;2022-10-16T06:22:38;100954.59;;;13.05;100.00
54540;BME280;40438;52.992;18.604;2022-10-16T06:25:04;100966.97;;;13.06;100.00
54540;BME280;40438;52.992;18.604;2022-10-16T06:27:30;100966.53;;;13.09;100.00
54540;BME280;40438;52.992;18.604;2022-10-16T06:29:57;100960.13;;;13.10;100.00
54540;BME280;40438;52.992;18.604;2022-10-16T06:32:23;100962.50;;;13.18;100.00
54540;BME280;40438;52.992;18.604;2022-10-16T06:34:48;100966.38;;;13.22;100.00
54540;BME280;40438;52.992;18.604;2022-10-16T06:37:14;100977.47;;;13.33;100.00
54540;BME280;40438;52.992;18.604;2022-10-16T06:39:40;100964.88;;;13.45;100.00
54540;BME280;40438;52.992;18.604;2022-10-16T06:42:05;100977.09;;;13.59;100.00
54540;BME280;40438;52.992;18.604;2022-10-16T06:44:35;100973.19;;;13.74;100.00
54540;BME280;40438;52.992;18.604;2022-10-16T06:47:02;100975.69;;;13.87;100.00
54540;BME280;40438;52.992;18.604;2022-10-16T06:49:28;100973.56;;;13.89;100.00
54540;BME280;40438;52.992;18.604;2022-10-16T06:51:53;100977.44;;;13.93;100.00
54540;BME280;40438;52.992;18.604;2022-10-16T06:54:19;100973.34;;;13.90;100.00
54540;BME280;40438;52.992;18.604;2022-10-16T06:56:45;100990.31;;;13.91;100.00
54540;BME280;40438;52.992;18.604;2022-10-16T06:59:10;101000.63;;;13.94;100.00
54540;BME280;40438;52.992;18.604;2022-10-16T07:01:36;101000.16;;;13.97;100.00
54540;BME280;40438;52.992;18.604;2022-10-16T07:04:03;100994.78;;;13.97;100.00
54540;BME280;40438;52.992;18.604;2022-10-16T07:06:31;100995.97;;;14.01;100.00
54540;BME280;40438;52.992;18.604;2022-10-16T07:08:57;100998.06;;;13.99;100.00
54540;BME280;40438;52.992;18.604;2022-10-16T07:11:23;101001.44;;;13.94;100.00
54540;BME280;40438;52.992;18.604;2022-10-16T07:13:50;101010.94;;;13.97;100.00
54540;BME280;40438;52.992;18.604;2022-10-16T07:16:18;101000.16;;;13.97;100.00
54540;BME280;40438;52.992;18.604;2022-10-16T07:18:44;100998.91;;;14.00;100.00
54540;BME280;40438;52.992;18.604;2022-10-16T07:21:13;101011.09;;;14.02;100.00
54540;BME280;40438;52.992;18.604;2022-10-16T07:23:39;101000.31;;;14.02;100.00
54540;BME280;40438;52.992;18.604;2022-10-16T07:26:05;100999.84;;;14.05;100.00
54540;BME280;40438;52.992;18.604;2022-10-16T07:28:32;101005.03;;;14.19;100.00
54540;BME280;40438;52.992;18.604;2022-10-16T07:31:00;101011.94;;;14.26;100.00
54540;BME280;40438;52.992;18.604;2022-10-16T07:33:26;101014.78;;;14.31;100.00
54540;BME280;40438;52.992;18.604;2022-10-16T07:35:53;101017.97;;;14.40;100.00
54540;BME280;40438;52.992;18.604;2022-10-16T07:38:21;101020.06;;;14.38;100.00
54540;BME280;40438;52.992;18.604;2022-10-16T07:40:47;101018.41;;;14.37;100.00
54540;BME280;40438;52.992;18.604;2022-10-16T07:43:13;101017.97;;;14.40;100.00
54540;BME280;40438;52.992;18.604;2022-10-16T07:45:46;101028.28;;;14.43;100.00
54540;BME280;40438;52.992;18.604;2022-10-16T07:48:12;101033.66;;;14.43;100.00
54540;BME280;40438;52.992;18.604;2022-10-16T07:50:38;101035.41;;;14.49;100.00
54540;BME280;40438;52.992;18.604;2022-10-16T07:53:04;101033.94;;;14.53;100.00
54540;BME280;40438;52.992;18.604;2022-10-16T07:55:31;101030.78;;;14.56;100.00
54540;BME280;40438;52.992;18.604;2022-10-16T07:57:57;101039.22;;;14.60;100.00
54540;BME280;40438;52.992;18.604;2022-10-16T08:00:22;101033.69;;;14.67;100.00
54540;BME280;40438;52.992;18.604;2022-10-16T08:02:48;101025.84;;;14.77;100.00
54540;BME280;40438;52.992;18.604;2022-10-16T08:05:14;101034.41;;;14.85;100.00
54540;BME280;40438;52.992;18.604;2022-10-16T08:07:40;101041.78;;;14.90;100.00
54540;BME280;40438;52.992;18.604;2022-10-16T08:10:06;101037.19;;;15.02;100.00
54540;BME280;40438;52.992;18.604;2022-10-16T08:12:33;101038.09;;;15.31;100.00
54540;BME280;40438;52.992;18.604;2022-10-16T08:14:59;101047.22;;;15.54;100.00
54540;BME280;40438;52.992;18.604;2022-10-16T08:17:24;101037.75;;;15.80;100.00
54540;BME280;40438;52.992;18.604;2022-10-16T08:19:50;101048.41;;;15.87;100.00
54540;BME280;40438;52.992;18.604;2022-10-16T08:22:16;101055.69;;;15.86;100.00
54540;BME280;40438;52.992;18.604;2022-10-16T08:24:42;101050.50;;;15.85;100.00
54540;BME280;40438;52.992;18.604;2022-10-16T08:27:07;101057.47;;;15.81;100.00
54540;BME280;40438;52.992;18.604;2022-10-16T08:29:34;101057.13;;;15.77;100.00
54540;BME280;40438;52.992;18.604;2022-10-16T08:32:00;101053.47;;;15.83;100.00
54540;BME280;40438;52.992;18.604;2022-10-16T08:34:26;101052.16;;;16.31;100.00
54540;BME280;40438;52.992;18.604;2022-10-16T08:36:53;101045.13;;;16.98;100.00
54540;BME280;40438;52.992;18.604;2022-10-16T08:39:18;101051.59;;;17.18;100.00
54540;BME280;40438;52.992;18.604;2022-10-16T08:42:11;101059.13;;;17.33;100.00
54540;BME280;40438;52.992;18.604;2022-10-16T08:45:12;101054.72;;;17.49;98.98
54540;BME280;40438;52.992;18.604;2022-10-16T08:47:47;101063.16;;;17.53;97.60
54540;BME280;40438;52.992;18.604;2022-10-16T08:50:20;101061.72;;;17.67;96.60
54540;BME280;40438;52.992;18.604;2022-10-16T08:52:47;101059.78;;;18.12;94.71
54540;BME280;40438;52.992;18.604;2022-10-16T08:55:24;101051.25;;;18.62;92.34
54540;BME280;40438;52.992;18.604;2022-10-16T08:57:53;101051.09;;;19.21;90.46
54540;BME280;40438;52.992;18.604;2022-10-16T09:00:21;101059.59;;;19.35;87.54
54540;BME280;40438;52.992;18.604;2022-10-16T09:02:52;101044.75;;;19.63;85.88
54540;BME280;40438;52.992;18.604;2022-10-16T09:05:23;101043.16;;;19.67;85.06
54540;BME280;40438;52.992;18.604;2022-10-16T09:08:03;101039.66;;;19.77;85.14
54540;BME280;40438;52.992;18.604;2022-10-16T09:10:40;101040.69;;;19.66;83.69
54540;BME280;40438;52.992;18.604;2022-10-16T09:13:18;101050.97;;;19.54;84.76
54540;BME280;40438;52.992;18.604;2022-10-16T09:15:51;101052.66;;;19.65;85.48
54540;BME280;40438;52.992;18.604;2022-10-16T09:18:24;101060.63;;;20.02;83.85
54540;BME280;40438;52.992;18.604;2022-10-16T09:20:57;101051.78;;;19.59;83.71
54540;BME280;40438;52.992;18.604;2022-10-16T09:23:27;101058.97;;;19.23;85.61
54540;BME280;40438;52.992;18.604;2022-10-16T09:25:55;101055.38;;;19.07;86.89
54540;BME280;40438;52.992;18.604;2022-10-16T09:28:22;101068.19;;;18.74;87.61
54540;BME280;40438;52.992;18.604;2022-10-16T09:30:49;101049.75;;;18.76;88.37
54540;BME280;40438;52.992;18.604;2022-10-16T09:33:18;101069.31;;;18.84;88.38
54540;BME280;40438;52.992;18.604;2022-10-16T09:35:45;101068.78;;;18.82;87.50
54540;BME280;40438;52.992;18.604;2022-10-16T09:38:25;101056.16;;;18.70;88.91
54540;BME280;40438;52.992;18.604;2022-10-16T09:40:51;101070.06;;;18.74;89.02
54540;BME280;40438;52.992;18.604;2022-10-16T09:43:22;101056.84;;;18.83;88.47
54540;BME280;40438;52.992;18.604;2022-10-16T09:45:58;101067.50;;;18.94;88.17
54540;BME280;40438;52.992;18.604;2022-10-16T09:48:27;101070.75;;;18.96;87.62
54540;BME280;40438;52.992;18.604;2022-10-16T09:50:57;101060.22;;;19.00;87.58
54540;BME280;40438;52.992;18.604;2022-10-16T09:53:23;101053.25;;;19.19;87.28
54540;BME280;40438;52.992;18.604;2022-10-16T09:55:52;101058.66;;;19.14;86.16
54540;BME280;40438;52.992;18.604;2022-10-16T09:58:20;101061.13;;;19.21;86.67
54540;BME280;40438;52.992;18.604;2022-10-16T10:00:49;101058.63;;;19.09;86.77
54540;BME280;40438;52.992;18.604;2022-10-16T10:03:35;101067.91;;;19.13;86.67
54540;BME280;40438;52.992;18.604;2022-10-16T10:06:13;101070.84;;;19.07;86.32
54540;BME280;40438;52.992;18.604;2022-10-16T10:08:40;101067.56;;;19.05;86.52
54540;BME280;40438;52.992;18.604;2022-10-16T10:11:06;101055.38;;;19.07;87.07
54540;BME280;40438;52.992;18.604;2022-10-16T10:13:32;101063.22;;;19.09;86.25
54540;BME280;40438;52.992;18.604;2022-10-16T10:15:58;101063.75;;;19.06;87.16
54540;BME280;40438;52.992;18.604;2022-10-16T10:18:25;101056.47;;;19.11;87.44
54540;BME280;40438;52.992;18.604;2022-10-16T10:20:57;101067.13;;;19.23;87.67
54540;BME280;40438;52.992;18.604;2022-10-16T10:23:25;101064.13;;;19.19;86.30
54540;BME280;40438;52.992;18.604;2022-10-16T10:25:56;101070.38;;;19.20;86.55
54540;BME280;40438;52.992;18.604;2022-10-16T10:28:44;101072.53;;;19.18;86.65
54540;BME280;40438;52.992;18.604;2022-10-16T10:31:20;101071.09;;;19.05;86.54
54540;BME280;40438;52.992;18.604;2022-10-16T10:33:53;101071.66;;;19.07;87.49
54540;BME280;40438;52.992;18.604;2022-10-16T10:36:29;101061.91;;;19.11;86.87
54540;BME280;40438;52.992;18.604;2022-10-16T10:38:58;101071.19;;;19.20;86.75
54540;BME280;40438;52.992;18.604;2022-10-16T10:41:55;101065.28;;;19.34;85.19
54540;BME280;40438;52.992;18.604;2022-10-16T10:44:33;101067.00;;;19.55;83.87
54540;BME280;40438;52.992;18.604;2022-10-16T10:47:08;101066.72;;;19.57;82.80
54540;BME280;40438;52.992;18.604;2022-10-16T10:49:49;101063.44;;;19.49;83.05
54540;BME280;40438;52.992;18.604;2022-10-16T10:52:41;101070.44;;;19.35;83.26
54540;BME280;40438;52.992;18.604;2022-10-16T10:55:15;101076.84;;;19.14;84.54
54540;BME280;40438;52.992;18.604;2022-10-16T10:57:59;101085.13;;;18.92;85.58
54540;BME280;40438;52.992;18.604;2022-10-16T11:00:34;101099.66;;;18.75;86.55
54540;BME280;40438;52.992;18.604;2022-10-16T11:03:15;101101.97;;;18.62;87.75
54540;BME280;40438;52.992;18.604;2022-10-16T11:05:50;101107.09;;;18.58;88.48
54540;BME280;40438;52.992;18.604;2022-10-16T11:08:19;101101.03;;;18.46;89.16
54540;BME280;40438;52.992;18.604;2022-10-16T11:10:51;101107.13;;;18.31;89.44
54540;BME280;40438;52.992;18.604;2022-10-16T11:13:30;101104.06;;;18.22;90.76
54540;BME280;40438;52.992;18.604;2022-10-16T11:16:00;101114.16;;;18.27;91.26
54540;BME280;40438;52.992;18.604;2022-10-16T11:18:33;101107.13;;;18.31;91.41
54540;BME280;40438;52.992;18.604;2022-10-16T11:21:09;101101.22;;;18.39;93.16
54540;BME280;40438;52.992;18.604;2022-10-16T11:23:41;101104.56;;;18.46;92.96
54540;BME280;40438;52.992;18.604;2022-10-16T11:26:14;101104.56;;;18.46;92.68
54540;BME280;40438;52.992;18.604;2022-10-16T11:28:45;101105.59;;;18.40;92.53
54540;BME280;40438;52.992;18.604;2022-10-16T11:31:14;101110.06;;;18.29;93.37
54540;BME280;40438;52.992;18.604;2022-10-16T11:33:44;101110.34;;;18.28;93.81
54540;BME280;40438;52.992;18.604;2022-10-16T11:36:16;101109.03;;;18.30;94.76
54540;BME280;40438;52.992;18.604;2022-10-16T11:38:48;101110.94;;;18.62;93.66
54540;BME280;40438;52.992;18.604;2022-10-16T11:41:22;101112.63;;;19.06;91.27
54540;BME280;40438;52.992;18.604;2022-10-16T11:43:56;101110.31;;;19.24;88.78
54540;BME280;40438;52.992;18.604;2022-10-16T11:46:26;101110.34;;;19.30;88.62
54540;BME280;40438;52.992;18.604;2022-10-16T11:48:59;101113.75;;;19.10;89.31
54540;BME280;40438;52.992;18.604;2022-10-16T11:51:36;101114.50;;;19.00;89.92
54540;BME280;40438;52.992;18.604;2022-10-16T11:54:08;101106.63;;;18.98;89.41
54540;BME280;40438;52.992;18.604;2022-10-16T11:56:41;101113.81;;;18.83;90.42
54540;BME280;40438;52.992;18.604;2022-10-16T11:59:14;101106.44;;;18.73;91.16
54540;BME280;40438;52.992;18.604;2022-10-16T12:01:45;101110.97;;;18.67;91.10
54540;BME280;40438;52.992;18.604;2022-10-16T12:04:19;101104.47;;;18.68;90.86
54540;BME280;40438;52.992;18.604;2022-10-16T12:06:52;101097.88;;;18.59;91.80
54540;BME280;40438;52.992;18.604;2022-10-16T12:09:25;101098.88;;;18.48;92.00
54540;BME280;40438;52.992;18.604;2022-10-16T12:11:51;101102.44;;;18.53;92.18
54540;BME280;40438;52.992;18.604;2022-10-16T12:14:35;101120.41;;;18.60;92.52
54540;BME280;40438;52.992;18.604;2022-10-16T12:17:03;101119.59;;;18.59;92.61
54540;BME280;40438;52.992;18.604;2022-10-16T12:19:30;101099.78;;;18.59;93.15
54540;BME280;40438;52.992;18.604;2022-10-16T12:21:59;101101.97;;;18.62;93.00
54540;BME280;40438;52.992;18.604;2022-10-16T12:24:33;101087.84;;;18.60;93.05
54540;BME280;40438;52.992;18.604;2022-10-16T12:27:01;101088.72;;;18.65;92.80
54540;BME280;40438;52.992;18.604;2022-10-16T12:29:36;101097.09;;;18.64;92.82
54540;BME280;40438;52.992;18.604;2022-10-16T12:32:04;101086.00;;;18.65;92.79
54540;BME280;40438;52.992;18.604;2022-10-16T12:34:37;101100.63;;;18.64;93.21
54540;BME280;40438;52.992;18.604;2022-10-16T12:37:19;101096.00;;;18.65;93.31
54540;BME280;40438;52.992;18.604;2022-10-16T12:39:47;101104.72;;;18.67;93.45
54540;BME280;40438;52.992;18.604;2022-10-16T12:42:22;101102.00;;;18.67;92.82